createdAt,value
2023-02-23T00:01:28.108Z,15.50
2023-02-23T00:03:57.804Z,13.37
2023-02-23T00:06:30.006Z,15.97
2023-02-23T00:09:01.321Z,11.73
2023-02-23T00:11:30.356Z,12.97
2023-02-23T00:13:59.123Z,12.83
2023-02-23T00:16:27.821Z,16.20
2023-02-23T00:19:00.653Z,15.70
2023-02-23T00:21:32.535Z,11.53
2023-02-23T00:24:03.123Z,19.00
2023-02-23T00:26:35.318Z,13.33
2023-02-23T00:29:06.370Z,18.20
2023-02-23T00:31:35.419Z,18.50
2023-02-23T00:34:05.651Z,21.40
2023-02-23T00:36:37.676Z,17.53
2023-02-23T00:39:18.306Z,16.13
2023-02-23T00:41:47.700Z,14.70
2023-02-23T00:44:16.747Z,14.20
2023-02-23T00:46:49.310Z,19.40
2023-02-23T00:49:17.900Z,18.87
2023-02-23T00:51:48.234Z,18.17
2023-02-23T00:54:18.253Z,26.33
2023-02-23T00:56:47.429Z,22.10
2023-02-23T00:59:16.562Z,21.10
2023-02-23T01:01:45.639Z,23.23
2023-02-23T01:04:15.452Z,21.23
2023-02-23T01:06:44.298Z,18.27
2023-02-23T01:09:27.341Z,20.73
2023-02-23T01:11:57.798Z,17.70
2023-02-23T01:14:26.554Z,17.93
2023-02-23T01:16:55.272Z,19.50
2023-02-23T01:19:24.069Z,20.13
2023-02-23T01:21:52.779Z,20.13
2023-02-23T01:24:22.732Z,20.23
2023-02-23T01:26:51.459Z,24.37
2023-02-23T01:29:20.089Z,19.40
2023-02-23T01:31:51.395Z,21.80
2023-02-23T01:34:21.947Z,17.40
2023-02-23T01:36:51.039Z,17.23
2023-02-23T01:39:22.395Z,20.23
2023-02-23T01:41:54.376Z,24.63
2023-02-23T01:45:00.345Z,15.47
2023-02-23T01:47:30.044Z,16.10
2023-02-23T01:49:58.871Z,16.07
2023-02-23T01:52:27.709Z,16.33
2023-02-23T01:54:58.345Z,16.37
2023-02-23T01:57:27.291Z,20.57
2023-02-23T01:59:56.954Z,17.53
2023-02-23T02:02:34.071Z,17.43
2023-02-23T02:05:05.238Z,16.67
2023-02-23T02:07:36.442Z,16.77
2023-02-23T02:10:39.683Z,22.57
2023-02-23T02:13:10.687Z,19.33
2023-02-23T02:15:56.327Z,18.37
2023-02-23T02:18:32.490Z,19.13
2023-02-23T02:21:49.342Z,20.33
2023-02-23T02:24:57.304Z,21.70
2023-02-23T02:27:45.228Z,20.60
2023-02-23T02:30:40.848Z,26.13
2023-02-23T02:33:38.144Z,26.73
2023-02-23T02:37:05.083Z,27.33
2023-02-23T02:39:46.773Z,22.03
2023-02-23T02:42:22.730Z,34.43
2023-02-23T02:45:00.544Z,29.87
2023-02-23T02:47:34.063Z,26.60
2023-02-23T02:50:08.709Z,54.88
2023-02-23T02:52:41.764Z,30.00
2023-02-23T02:55:16.824Z,36.23
2023-02-23T02:57:47.563Z,24.50
2023-02-23T03:00:37.561Z,23.87
2023-02-23T03:03:23.938Z,12.30
2023-02-23T03:06:13.369Z,12.17
2023-02-23T03:09:07.432Z,11.53
2023-02-23T03:11:59.199Z,11.53
2023-02-23T03:14:52.397Z,11.17
2023-02-23T03:17:48.835Z,12.70
2023-02-23T03:20:43.341Z,12.47
2023-02-23T03:23:36.049Z,13.97
2023-02-23T03:26:27.843Z,14.00
2023-02-23T03:29:22.368Z,13.80
2023-02-23T03:32:16.400Z,13.27
2023-02-23T03:35:05.728Z,14.10
2023-02-23T03:37:58.650Z,12.63
2023-02-23T03:40:48.366Z,12.47
2023-02-23T03:43:37.901Z,11.97
2023-02-23T03:46:29.616Z,13.53
2023-02-23T03:49:18.999Z,13.40
2023-02-23T03:52:09.314Z,12.77
2023-02-23T03:55:11.708Z,13.27
2023-02-23T03:58:00.211Z,12.53
2023-02-23T04:00:49.593Z,12.00
2023-02-23T04:03:38.471Z,12.40
2023-02-23T04:06:27.428Z,11.97
2023-02-23T04:09:18.104Z,11.77
2023-02-23T04:12:09.440Z,12.60
2023-02-23T04:14:41.601Z,12.27
2023-02-23T04:17:10.391Z,16.40
2023-02-23T04:19:40.575Z,19.90
2023-02-23T04:22:09.155Z,23.13
2023-02-23T04:24:37.735Z,22.30
2023-02-23T04:27:06.533Z,14.90
2023-02-23T04:29:35.172Z,30.20
2023-02-23T04:32:03.808Z,26.20
2023-02-23T04:34:32.872Z,46.87
2023-02-23T04:37:02.923Z,50.50
2023-02-23T04:39:31.550Z,47.23
2023-02-23T04:42:00.092Z,33.00
2023-02-23T04:44:31.093Z,34.70
2023-02-23T04:47:00.300Z,33.13
2023-02-23T04:49:28.850Z,27.37
2023-02-23T04:51:57.521Z,32.23
2023-02-23T04:54:27.764Z,29.37
2023-02-23T04:56:56.432Z,23.93
2023-02-23T04:59:25.080Z,25.67
2023-02-23T05:01:53.655Z,31.83
2023-02-23T05:04:22.199Z,25.45
2023-02-23T05:06:50.754Z,40.63
2023-02-23T05:09:19.271Z,43.90
2023-02-23T05:11:49.459Z,46.03
2023-02-23T05:14:17.969Z,37.00
2023-02-23T05:16:46.552Z,38.17
2023-02-23T05:19:15.149Z,32.57
2023-02-23T05:21:43.840Z,32.33
2023-02-23T05:24:12.723Z,31.37
2023-02-23T05:26:41.246Z,25.13
2023-02-23T05:29:11.227Z,27.03
2023-02-23T05:31:39.788Z,28.23
2023-02-23T05:34:08.434Z,26.43
2023-02-23T05:36:37.217Z,27.77
2023-02-23T05:39:06.050Z,29.70
2023-02-23T05:41:34.580Z,29.27
2023-02-23T05:44:03.074Z,30.10
2023-02-23T05:46:33.058Z,30.97
2023-02-23T05:49:02.942Z,38.17
2023-02-23T05:51:33.880Z,43.08
2023-02-23T05:54:02.624Z,18.80
2023-02-23T05:56:31.434Z,57.00
2023-02-23T05:59:00.516Z,44.37
2023-02-23T06:01:29.677Z,34.50
2023-02-23T06:03:59.678Z,37.63
2023-02-23T06:06:28.653Z,33.10
2023-02-23T06:08:57.416Z,41.47
2023-02-23T06:11:26.037Z,31.83
2023-02-23T06:13:55.454Z,30.37
2023-02-23T06:16:24.416Z,32.70
2023-02-23T06:18:52.994Z,34.77
2023-02-23T06:21:23.146Z,30.57
2023-02-23T06:23:52.605Z,33.77
2023-02-23T06:26:21.955Z,35.83
2023-02-23T06:28:50.824Z,35.90
2023-02-23T06:31:19.664Z,35.20
2023-02-23T06:33:48.919Z,35.57
2023-02-23T06:36:17.797Z,28.60
2023-02-23T06:38:47.703Z,62.47
2023-02-23T06:41:16.312Z,33.53
2023-02-23T06:43:45.025Z,30.90
2023-02-23T06:46:13.574Z,32.07
2023-02-23T06:48:42.459Z,33.60
2023-02-23T06:51:11.173Z,37.30
2023-02-23T06:53:39.720Z,35.57
2023-02-23T06:56:12.440Z,45.20
2023-02-23T06:58:40.999Z,41.60
2023-02-23T07:01:10.141Z,41.07
2023-02-23T07:03:38.683Z,36.17
2023-02-23T07:06:07.488Z,37.73
2023-02-23T07:08:36.854Z,44.80
2023-02-23T07:11:11.471Z,41.47
2023-02-23T07:13:40.048Z,40.80
2023-02-23T07:16:09.668Z,36.50
2023-02-23T07:18:38.206Z,43.23
2023-02-23T07:21:07.974Z,38.43
2023-02-23T07:23:36.539Z,35.47
2023-02-23T07:26:05.168Z,43.33
2023-02-23T07:28:35.098Z,40.90
2023-02-23T07:31:03.749Z,40.20
2023-02-23T07:33:32.742Z,41.40
2023-02-23T07:36:01.382Z,41.10
2023-02-23T07:38:30.335Z,39.20
2023-02-23T07:40:59.148Z,39.30
2023-02-23T07:43:27.781Z,36.27
2023-02-23T07:46:01.067Z,37.73
2023-02-23T07:48:30.253Z,46.03
2023-02-23T07:50:58.917Z,51.43
2023-02-23T07:53:28.170Z,37.83
2023-02-23T07:56:00.944Z,48.23
2023-02-23T07:58:30.808Z,47.80
2023-02-23T08:01:01.479Z,49.80
2023-02-23T08:03:30.224Z,46.13
2023-02-23T08:05:59.022Z,42.67
2023-02-23T08:08:28.343Z,41.77
2023-02-23T08:11:02.292Z,47.17
2023-02-23T08:13:32.065Z,50.83
2023-02-23T08:16:02.147Z,50.90
2023-02-23T08:18:30.930Z,48.00
2023-02-23T08:21:00.644Z,39.67
2023-02-23T08:23:31.139Z,45.90
2023-02-23T08:26:00.882Z,53.13
2023-02-23T08:28:30.611Z,38.53
2023-02-23T08:30:59.646Z,30.83
2023-02-23T08:33:31.798Z,38.60
2023-02-23T08:36:02.938Z,37.73
2023-02-23T08:38:32.003Z,39.90
2023-02-23T08:41:02.335Z,58.73
2023-02-23T08:43:31.157Z,55.77
2023-02-23T08:45:59.989Z,67.63
2023-02-23T08:48:29.996Z,68.80
2023-02-23T08:50:59.082Z,67.33
2023-02-23T08:53:29.779Z,59.37
2023-02-23T08:55:59.620Z,60.77
2023-02-23T08:58:28.503Z,63.23
2023-02-23T09:00:57.052Z,60.40
2023-02-23T09:03:28.689Z,49.30
2023-02-23T09:06:08.568Z,56.53
2023-02-23T09:08:37.236Z,65.57
2023-02-23T09:11:05.928Z,84.20
2023-02-23T09:13:34.763Z,85.13
2023-02-23T09:16:04.022Z,77.37
2023-02-23T09:18:32.820Z,90.83
2023-02-23T09:21:07.212Z,81.03
2023-02-23T09:23:35.964Z,84.13
2023-02-23T09:26:05.637Z,88.80
2023-02-23T09:28:36.092Z,96.37
2023-02-23T09:31:07.663Z,96.10
2023-02-23T09:33:36.422Z,89.47
2023-02-23T09:36:12.926Z,103.40
2023-02-23T09:38:41.801Z,75.93
2023-02-23T09:41:49.962Z,94.00
2023-02-23T09:44:30.010Z,86.93
2023-02-23T09:47:11.561Z,86.17
2023-02-23T09:49:43.858Z,94.00
2023-02-23T09:52:19.595Z,94.50
2023-02-23T09:54:48.581Z,88.93
2023-02-23T09:57:21.418Z,87.03
2023-02-23T09:59:50.144Z,92.33
2023-02-23T10:02:27.274Z,107.43
2023-02-23T10:05:01.017Z,111.07
2023-02-23T10:07:43.705Z,89.73
2023-02-23T10:10:24.639Z,88.97
2023-02-23T10:13:06.093Z,88.47
2023-02-23T10:15:42.047Z,140.67
2023-02-23T10:18:23.012Z,123.27
2023-02-23T10:20:59.774Z,138.10
2023-02-23T10:23:35.020Z,119.77
2023-02-23T10:26:08.874Z,17.92
2023-02-23T10:28:39.234Z,25.73
2023-02-23T10:31:24.746Z,31.47
2023-02-23T10:33:56.445Z,24.40
2023-02-23T10:36:35.362Z,26.63
2023-02-23T10:39:07.981Z,26.30
2023-02-23T10:41:37.077Z,28.57
2023-02-23T10:44:16.771Z,30.83
2023-02-23T10:46:47.981Z,33.47
2023-02-23T10:49:23.009Z,42.07
2023-02-23T10:51:52.462Z,36.17
2023-02-23T10:54:44.865Z,50.77
2023-02-23T10:57:20.985Z,55.83
2023-02-23T11:00:33.449Z,59.27
2023-02-23T11:03:04.686Z,110.87
2023-02-23T11:05:47.237Z,52.13
2023-02-23T11:08:34.437Z,69.00
2023-02-23T11:11:08.523Z,68.07
2023-02-23T11:13:42.680Z,55.47
2023-02-23T11:16:14.586Z,49.27
2023-02-23T11:18:45.067Z,42.70
2023-02-23T11:21:19.421Z,35.00
2023-02-23T11:23:51.156Z,39.37
2023-02-23T11:26:37.404Z,30.93
2023-02-23T11:29:16.567Z,43.40
2023-02-23T11:31:51.107Z,33.00
2023-02-23T11:34:26.052Z,29.23
2023-02-23T11:37:04.218Z,42.20
2023-02-23T11:39:33.022Z,29.73
2023-02-23T11:42:25.627Z,30.87
2023-02-23T11:45:04.053Z,33.70
2023-02-23T11:47:35.709Z,44.03
2023-02-23T11:50:06.361Z,37.20
2023-02-23T11:52:36.823Z,32.60
2023-02-23T11:55:09.016Z,27.60
2023-02-23T11:57:39.046Z,26.97
2023-02-23T12:00:15.569Z,26.30
2023-02-23T12:02:53.894Z,21.73
2023-02-23T12:05:25.366Z,26.00
2023-02-23T12:07:59.643Z,27.57
2023-02-23T12:10:32.441Z,22.13
2023-02-23T12:13:11.402Z,49.07
2023-02-23T12:15:49.287Z,25.30
2023-02-23T12:18:28.383Z,20.33
2023-02-23T12:21:02.488Z,38.90
2023-02-23T12:23:35.165Z,23.03
2023-02-23T12:26:07.776Z,25.77
2023-02-23T12:28:41.988Z,29.93
2023-02-23T12:31:24.868Z,25.47
2023-02-23T12:33:58.718Z,25.57
2023-02-23T12:36:35.363Z,26.40
2023-02-23T12:39:09.984Z,26.73
2023-02-23T12:41:44.188Z,29.27
2023-02-23T12:44:23.823Z,26.10
2023-02-23T12:46:55.269Z,22.40
2023-02-23T12:49:32.348Z,21.27
2023-02-23T12:52:10.742Z,26.27
2023-02-23T12:54:39.541Z,28.63
2023-02-23T12:57:16.302Z,25.97
2023-02-23T13:00:24.300Z,34.20
2023-02-23T13:03:08.798Z,27.40
2023-02-23T13:05:43.415Z,28.13
2023-02-23T13:08:22.292Z,24.90
2023-02-23T13:11:03.878Z,32.57
2023-02-23T13:13:39.113Z,33.20
2023-02-23T13:16:17.360Z,29.87
2023-02-23T13:18:51.603Z,28.20
2023-02-23T13:21:28.212Z,28.10
2023-02-23T13:24:01.363Z,28.70
2023-02-23T13:26:39.005Z,32.23
2023-02-23T13:29:16.568Z,26.47
2023-02-23T13:31:46.866Z,24.40
2023-02-23T13:34:26.598Z,28.93
2023-02-23T13:36:56.253Z,32.70
2023-02-23T13:39:48.019Z,30.40
2023-02-23T13:42:37.966Z,22.87
2023-02-23T13:45:33.504Z,38.40
2023-02-23T13:48:08.416Z,39.33
2023-02-23T13:50:47.220Z,40.17
2023-02-23T13:53:35.110Z,34.73
2023-02-23T13:56:08.594Z,32.60
2023-02-23T13:58:38.048Z,28.40
2023-02-23T14:01:12.364Z,24.33
2023-02-23T14:03:48.883Z,22.50
2023-02-23T14:06:20.959Z,23.93
2023-02-23T14:08:57.192Z,25.97
2023-02-23T14:11:52.401Z,41.28
2023-02-23T14:14:43.138Z,30.13
2023-02-23T14:17:28.235Z,33.07
2023-02-23T14:20:27.876Z,31.13
2023-02-23T14:23:29.688Z,29.93
2023-02-23T14:26:27.904Z,24.40
2023-02-23T14:29:12.734Z,26.43
2023-02-23T14:31:56.403Z,27.93
2023-02-23T14:34:26.012Z,32.15
2023-02-23T14:36:56.211Z,35.78
2023-02-23T14:39:30.019Z,23.90
2023-02-23T14:42:01.531Z,36.70
2023-02-23T14:44:31.968Z,27.83
2023-02-23T14:47:05.702Z,25.17
2023-02-23T14:49:38.074Z,21.60
2023-02-23T14:52:09.850Z,21.03
2023-02-23T14:54:41.972Z,26.57
2023-02-23T14:57:20.795Z,32.43
2023-02-23T14:59:55.623Z,27.77
2023-02-23T15:02:26.175Z,32.57
2023-02-23T15:04:55.498Z,27.90
2023-02-23T15:07:32.401Z,30.83
2023-02-23T15:10:06.989Z,29.37
2023-02-23T15:12:38.848Z,40.93
2023-02-23T15:15:17.384Z,30.17
2023-02-23T15:17:49.408Z,36.50
2023-02-23T15:20:20.405Z,33.80
2023-02-23T15:22:57.753Z,37.73
2023-02-23T15:25:36.550Z,37.17
2023-02-23T15:28:29.852Z,35.90
2023-02-23T15:31:02.097Z,39.50
2023-02-23T15:33:43.297Z,39.83
2023-02-23T15:36:21.345Z,46.33
2023-02-23T15:38:53.380Z,34.17
2023-02-23T15:41:30.620Z,40.13
2023-02-23T15:44:07.488Z,47.07
2023-02-23T15:46:38.056Z,47.83
2023-02-23T15:49:07.851Z,48.67
2023-02-23T15:51:39.568Z,49.17
2023-02-23T15:54:20.773Z,52.07
2023-02-23T15:56:54.838Z,47.93
2023-02-23T15:59:28.937Z,48.77
2023-02-23T16:02:00.188Z,47.30
2023-02-23T16:04:33.959Z,47.60
2023-02-23T16:07:16.152Z,55.23
2023-02-23T16:09:51.293Z,73.43
2023-02-23T16:12:26.262Z,48.00
2023-02-23T16:14:56.695Z,66.90
2023-02-23T16:17:30.480Z,66.77
2023-02-23T16:20:17.706Z,83.70
2023-02-23T16:22:47.913Z,71.80
2023-02-23T16:25:19.780Z,71.50
2023-02-23T16:27:59.621Z,60.57
2023-02-23T16:30:40.707Z,71.33
2023-02-23T16:33:19.948Z,67.00
2023-02-23T16:35:50.748Z,66.13
2023-02-23T16:38:25.923Z,66.63
2023-02-23T16:40:54.824Z,59.30
2023-02-23T16:43:24.872Z,52.57
2023-02-23T16:45:53.572Z,53.80
2023-02-23T16:48:23.099Z,64.93
2023-02-23T16:50:51.967Z,59.83
2023-02-23T16:53:20.487Z,67.17
2023-02-23T16:55:54.269Z,67.23
2023-02-23T16:58:27.240Z,60.70
2023-02-23T17:00:56.369Z,67.13
2023-02-23T17:03:27.158Z,66.43
2023-02-23T17:05:56.142Z,67.70
2023-02-23T17:08:24.814Z,84.37
2023-02-23T17:10:56.034Z,72.77
2023-02-23T17:13:29.261Z,78.03
2023-02-23T17:15:59.379Z,71.03
2023-02-23T17:18:29.610Z,67.27
2023-02-23T17:20:59.826Z,62.17
2023-02-23T17:23:39.162Z,81.07
2023-02-23T17:26:08.487Z,63.63
2023-02-23T17:28:38.530Z,69.33
2023-02-23T17:31:08.002Z,56.13
2023-02-23T17:33:37.969Z,62.43
2023-02-23T17:36:09.695Z,62.80
2023-02-23T17:38:38.765Z,60.40
2023-02-23T17:41:08.865Z,62.80
2023-02-23T17:43:38.971Z,58.87
2023-02-23T17:46:08.303Z,76.77
2023-02-23T17:48:37.097Z,73.80
2023-02-23T17:51:12.296Z,69.10
2023-02-23T17:53:41.691Z,58.07
2023-02-23T17:56:11.165Z,58.40
2023-02-23T17:58:43.345Z,53.83
2023-02-23T18:01:12.188Z,62.27
2023-02-23T18:03:48.408Z,57.33
2023-02-23T18:06:17.135Z,60.73
2023-02-23T18:08:45.983Z,66.43
2023-02-23T18:11:18.905Z,57.37
2023-02-23T18:13:51.449Z,75.00
2023-02-23T18:16:21.825Z,64.23
2023-02-23T18:18:50.922Z,69.40
2023-02-23T18:21:21.964Z,81.47
2023-02-23T18:23:51.022Z,70.07
2023-02-23T18:26:21.907Z,77.77
2023-02-23T18:28:52.659Z,74.53
2023-02-23T18:31:24.404Z,78.87
2023-02-23T18:33:57.462Z,76.20
2023-02-23T18:36:32.735Z,81.90
2023-02-23T18:39:02.171Z,66.83
2023-02-23T18:41:47.355Z,80.00
2023-02-23T18:44:22.168Z,85.40
2023-02-23T18:46:51.499Z,75.10
2023-02-23T18:49:22.211Z,88.47
2023-02-23T18:51:51.418Z,75.70
2023-02-23T18:54:22.732Z,73.13
2023-02-23T18:56:56.144Z,75.77
2023-02-23T18:59:26.390Z,84.43
2023-02-23T19:01:55.091Z,107.93
2023-02-23T19:04:23.780Z,110.33
2023-02-23T19:07:10.402Z,106.37
2023-02-23T19:09:41.472Z,94.00
2023-02-23T19:12:11.655Z,96.47
2023-02-23T19:14:49.902Z,88.60
2023-02-23T19:17:22.637Z,77.97
2023-02-23T19:19:51.524Z,69.23
2023-02-23T19:22:24.525Z,63.23
2023-02-23T19:24:53.084Z,73.90
2023-02-23T19:27:21.934Z,83.03
2023-02-23T19:29:52.059Z,79.23
2023-02-23T19:32:20.708Z,61.57
2023-02-23T19:34:49.635Z,68.73
2023-02-23T19:37:18.338Z,68.03
2023-02-23T19:39:47.237Z,69.83
2023-02-23T19:42:18.567Z,70.23
2023-02-23T19:44:47.324Z,69.67
2023-02-23T19:47:17.420Z,71.20
2023-02-23T19:49:46.240Z,73.17
2023-02-23T19:52:14.922Z,80.80
2023-02-23T19:54:44.931Z,77.87
2023-02-23T19:57:13.623Z,76.20
2023-02-23T19:59:42.922Z,72.83
2023-02-23T20:02:12.745Z,75.97
2023-02-23T20:04:43.212Z,72.13
2023-02-23T20:07:12.020Z,63.30
2023-02-23T20:09:40.797Z,67.00
2023-02-23T20:12:09.825Z,66.43
2023-02-23T20:14:39.684Z,74.17
2023-02-23T20:17:09.201Z,69.93
2023-02-23T20:19:37.782Z,67.23
2023-02-23T20:22:09.018Z,51.30
2023-02-23T20:24:40.039Z,53.77
2023-02-23T20:27:09.376Z,52.10
2023-02-23T20:29:38.002Z,48.60
2023-02-23T20:32:07.750Z,51.40
2023-02-23T20:34:39.483Z,56.20
2023-02-23T20:37:09.657Z,53.77
2023-02-23T20:39:38.484Z,47.43
2023-02-23T20:42:07.132Z,44.23
2023-02-23T20:44:35.758Z,46.83
2023-02-23T20:47:10.015Z,59.33
2023-02-23T20:49:39.262Z,65.43
2023-02-23T20:52:09.325Z,69.80
2023-02-23T20:54:40.030Z,81.77
2023-02-23T20:57:09.328Z,71.37
2023-02-23T20:59:49.799Z,66.73
2023-02-23T21:02:18.706Z,71.70
2023-02-23T21:04:48.309Z,62.90
2023-02-23T21:07:18.723Z,44.13
2023-02-23T21:09:47.650Z,37.33
2023-02-23T21:12:16.376Z,51.40
2023-02-23T21:14:44.864Z,57.83
2023-02-23T21:17:13.464Z,60.17
2023-02-23T21:19:41.995Z,61.27
2023-02-23T21:22:14.789Z,72.13
2023-02-23T21:24:45.379Z,68.67
2023-02-23T21:27:14.025Z,45.37
2023-02-23T21:29:43.244Z,69.97
2023-02-23T21:32:16.969Z,62.40
2023-02-23T21:34:46.074Z,57.93
2023-02-23T21:37:14.590Z,61.00
2023-02-23T21:39:46.842Z,57.80
2023-02-23T21:42:15.846Z,45.43
2023-02-23T21:44:45.890Z,51.00
2023-02-23T21:47:15.182Z,56.13
2023-02-23T21:49:49.476Z,50.30
2023-02-23T21:52:18.665Z,64.97
2023-02-23T21:54:52.085Z,61.33
2023-02-23T21:57:22.890Z,55.07
2023-02-23T21:59:52.314Z,58.93
2023-02-23T22:02:21.615Z,64.00
2023-02-23T22:04:54.163Z,62.57
2023-02-23T22:07:23.142Z,60.63
2023-02-23T22:09:56.241Z,61.20
2023-02-23T22:12:28.015Z,59.20
2023-02-23T22:14:57.160Z,60.30
2023-02-23T22:17:26.378Z,59.37
2023-02-23T22:19:55.278Z,54.47
2023-02-23T22:22:23.768Z,57.53
2023-02-23T22:24:52.492Z,46.57
2023-02-23T22:27:22.666Z,53.97
2023-02-23T22:29:52.111Z,52.17
2023-02-23T22:32:21.780Z,50.60
2023-02-23T22:34:50.406Z,52.28
2023-02-23T22:37:22.176Z,35.60
2023-02-23T22:39:51.237Z,36.07
2023-02-23T22:42:19.865Z,61.50
2023-02-23T22:44:50.333Z,58.57
2023-02-23T22:47:19.015Z,48.77
2023-02-23T22:49:48.584Z,53.23
2023-02-23T22:52:17.112Z,57.50
2023-02-23T22:54:48.203Z,60.70
2023-02-23T22:57:16.755Z,54.27
2023-02-23T22:59:54.861Z,54.30
2023-02-23T23:02:24.968Z,60.87
2023-02-23T23:04:54.411Z,55.83
2023-02-23T23:07:22.996Z,54.53
2023-02-23T23:09:51.906Z,74.63
2023-02-23T23:12:20.454Z,71.67
2023-02-23T23:14:49.070Z,73.67
2023-02-23T23:17:17.978Z,67.60
2023-02-23T23:19:50.480Z,62.30
2023-02-23T23:22:20.382Z,54.30
2023-02-23T23:24:49.208Z,54.90
2023-02-23T23:27:19.890Z,61.97
2023-02-23T23:29:50.071Z,60.63
2023-02-23T23:32:27.938Z,61.13
2023-02-23T23:35:00.103Z,63.50
2023-02-23T23:37:29.712Z,72.10
2023-02-23T23:40:00.410Z,64.20
2023-02-23T23:42:28.940Z,62.73
2023-02-23T23:44:57.827Z,57.57
2023-02-23T23:47:27.268Z,57.17
2023-02-23T23:49:57.290Z,68.27
2023-02-23T23:52:26.010Z,55.47
2023-02-23T23:54:54.702Z,51.90
2023-02-23T23:57:23.398Z,52.30
2023-02-23T23:59:52.238Z,63.07
